• Join FlightAware (Why Join?)
  • Login
  • US Flag 
02:02AM EDT


 

Airport Tracker/Info


-or-


 

Live Flight TrackerFlight Track Log ✈ N789EX ✈ 23-Dec-2013 ✈ KBFI - KBFI

Flight Track Log - Related Links

Times and Time Zones

All times are in EST time to prevent confusion due to time zone crossing. See the N789EX flight status page for this flight to view local times or setup timezone preferences in your user account.

Time Position Orientation Groundspeed Altitude Reporting Facility
EST Latitude Longitude Course Direction KTS MPH feet Rate Location/Type
06:33PM 47.5117 -122.2878 146° Southeast 175 201 1,200  Level Seattle Center
06:34PM 47.4950 -122.2708 146° Southeast 174 200 2,100 2,280 Climbing Seattle Center
06:34PM 47.4536 -122.2250 143° Southeast 258 297 4,000 2,640 Climbing Seattle Center
06:35PM 47.4425 -122.2050 129° Southeast 248 285 4,800 4,020 Climbing Seattle Center
06:36PM 47.4722 -122.1325 59° Northeast 279 321 8,500 4,200 Climbing Seattle Center
06:36PM 47.4833 -122.1353 350° North 254 292 9,100 2,640 Climbing Seattle Center
06:37PM 47.4964 -122.2381 281° West 287 330 11,600 3,000 Climbing Seattle Center
06:38PM 47.4844 -122.3689 262° West 329 379 15,200 3,240 Climbing Seattle Center
06:39PM 47.5078 -122.5014 285° West 334 384 18,300 3,360 Climbing Seattle Center
06:40PM 47.5558 -122.6222 301° West 335 386 22,100 3,120 Climbing Seattle Center
06:41PM 47.6025 -122.7433 300° West 335 386 24,700 2,460 Climbing Seattle Center
06:42PM 47.6492 -122.8653 300° West 338 389 27,200 2,040 Climbing Seattle Center
06:43PM 47.6972 -122.9903 300° West 347 399 28,900 1,680 Climbing Seattle Center
06:44PM 47.7469 -123.1219 299° West 362 417 30,700 1,380 Climbing Seattle Center
06:45PM 47.7981 -123.2578 299° West 376 433 31,800 1,140 Climbing Seattle Center
06:46PM 47.8519 -123.4022 299° West 396 456 33,100 1,440 Climbing Seattle Center
06:47PM 47.9042 -123.5483 298° West 400 460 34,800 1,440 Climbing Seattle Center
06:48PM 47.9222 -123.7322 278° West 403 464 36,100 960 Climbing Seattle Center
06:49PM 47.9400 -123.9022 279° West 413 475 36,800 780 Climbing Seattle Center
06:50PM 47.9594 -124.0736 280° West 419 482 37,700 780 Climbing Seattle Center
06:51PM 47.9436 -124.2497 262° West 441 507 38,500 660 Climbing Seattle Center
06:52PM 47.8436 -124.3708 219° Southwest 481 554 39,100 600 Climbing Seattle Center
06:53PM 47.6992 -124.3650 178° South 523 602 39,800 300 Climbing Seattle Center
06:54PM 47.5547 -124.3489 176° South 521 600 39,800  Level Seattle Center
06:55PM 47.4094 -124.3358 177° South 524 603 39,800 -60 Level Seattle Center
06:56PM 47.2678 -124.3281 178° South 513 590 39,700 -180 Descending Seattle Center
06:57PM 47.1292 -124.3108 175° South 504 580 39,500 120 Descending Seattle Center
06:58PM 46.9922 -124.2961 176° South 496 571 40,000 300 Climbing Seattle Center
06:59PM 46.8522 -124.2764 174° South 505 581 40,200 360 Climbing Seattle Center
07:00PM 46.7103 -124.2606 176° South 512 589 40,800 -300 Climbing Seattle Center
07:01PM 46.5681 -124.2458 176° South 514 592 39,600 -1,680 Descending Seattle Center
07:02PM 46.4286 -124.2364 177° South 507 583 37,400 -300 Descending Seattle Center
07:03PM 46.2900 -124.2197 175° South 496 571 39,100 1,260 Climbing Seattle Center
07:04PM 46.1319 -124.2072 177° South 479 551 40,000 600 Climbing Seattle Center
07:05PM 46.0000 -124.1981 177° South 482 555 40,400 300 Climbing Seattle Center
07:06PM 45.8653 -124.1844 176° South 487 560 40,700 180 Climbing Seattle Center
07:07PM 45.7294 -124.1678 175° South 490 564 40,800 -1,200 Climbing Seattle Center
07:08PM 45.5897 -124.1556 176° South 503 579 38,400 -1,620 Descending Seattle Center
07:09PM 45.4511 -124.1503 178° South 502 578 37,600 -540 Descending Seattle Center
07:10PM 45.3214 -124.1803 189° South 501 577 37,400 -300 Descending Seattle Center
07:11PM 45.3125 -124.3217 265° West 401 461 37,100 -240 Descending Seattle Center
07:12PM 45.4236 -124.3678 344° North 433 498 37,000 -120 Descending Seattle Center
07:13PM 45.5464 -124.2839 26° Northeast 500 575 36,900  Descending Seattle Center
07:14PM 45.6639 -124.1717 34° Northeast 507 583 37,000  Climbing Seattle Center
07:15PM 45.7811 -124.0603 34° Northeast 507 583 36,900  Descending Seattle Center
07:16PM 45.8983 -123.9500 33° Northeast 505 581 37,000  Climbing Seattle Center
07:17PM 46.0156 -123.8375 34° Northeast 506 582 36,900 -1,560 Descending Seattle Center
07:18PM 46.1556 -123.7011 34° Northeast 507 583 33,900 -3,060 Descending Seattle Center
07:19PM 46.2689 -123.5903 34° Northeast 497 572 30,800 -3,000 Descending Seattle Center
07:20PM 46.3833 -123.4828 33° Northeast 494 568 27,900 -2,580 Descending Seattle Center
07:21PM 46.4939 -123.3789 33° Northeast 483 556 25,600 -2,340 Descending Seattle Center
07:22PM 46.6025 -123.2722 34° Northeast 474 545 23,200 -2,460 Descending Seattle Center
07:23PM 46.7069 -123.1703 34° Northeast 460 529 20,700 -2,460 Descending Seattle Center
07:24PM 46.8072 -123.0661 35° Northeast 447 514 18,300 -2,520 Descending Seattle Center
07:24PM 46.8175 -123.0569 31° Northeast 437 503 18,100 -960 Descending Seattle Center
07:25PM 46.8692 -123.0069 33° Northeast 424 488 17,800 -720 Descending Seattle Center
07:25PM 46.9100 -122.9622 37° Northeast 411 473 17,400 -600 Descending Seattle Center
07:26PM 46.9539 -122.9197 33° Northeast 363 418 17,200 -840 Descending Seattle Center
07:26PM 46.9883 -122.8789 39° Northeast 347 399 16,600 -1,200 Descending Seattle Center
07:27PM 47.0272 -122.8319 39° Northeast 326 375 16,000 -1,380 Descending Seattle Center
07:27PM 47.0592 -122.7897 42° Northeast 335 386 15,200 -1,380 Descending Seattle Center
07:28PM 47.0967 -122.7461 38° Northeast 327 376 14,600 -1,320 Descending Seattle Center
07:28PM 47.1253 -122.7058 44° Northeast 311 358 13,900 -1,200 Descending Seattle Center
07:29PM 47.1561 -122.6653 42° Northeast 287 330 13,400 -2,040 Descending Seattle Center
07:29PM 47.1925 -122.6342 30° Northeast 282 325 11,900 -2,400 Descending Seattle Center
07:30PM 47.2269 -122.6203 15° North 272 313 11,000 -2,700 Descending Seattle Center
07:30PM 47.2664 -122.6156 North 268 308 9,200 -3,180 Descending Seattle Center
07:31PM 47.3053 -122.6136 North 260 299 7,800 -2,460 Descending Seattle Center
07:31PM 47.3392 -122.6122 North 264 304 6,700 -1,620 Descending Seattle Center
07:32PM 47.3783 -122.6131 359° North 261 300 6,200 -1,140 Descending Seattle Center
07:32PM 47.4114 -122.6119 North 261 300 5,600 -1,320 Descending Seattle Center
07:33PM 47.4481 -122.6078 North 253 291 4,900 -1,440 Descending Seattle Center
07:33PM 47.4814 -122.6031 North 253 291 4,200 -900 Descending Seattle Center
07:34PM 47.5150 -122.6008 North 253 291 4,100 -240 Descending Seattle Center
07:35PM 47.5528 -122.5975 North 255 293 4,000 -420 Descending Seattle Center
07:35PM 47.5867 -122.5944 North 257 296 3,700 -840 Descending Seattle Center
07:36PM 47.6219 -122.5892 North 251 289 3,200 -720 Descending Seattle Center
07:36PM 47.6497 -122.5797 13° North 236 272 3,000 -600 Descending Seattle Center
07:37PM 47.6692 -122.5436 51° Northeast 219 252 2,600 -600 Descending Seattle Center
07:37PM 47.6919 -122.5006 52° Northeast 180 207 2,300 -420 Descending Seattle Center
07:38PM 47.6928 -122.4775 87° East 198 228 2,200  Descending Seattle Center
07:38PM 47.6800 -122.4347 114° Southeast 167 192 2,300  Climbing Seattle Center
07:39PM 47.6631 -122.4164 144° Southeast 181 208 2,200  Descending Seattle Center
07:39PM 47.6389 -122.3950 149° Southeast 169 194 2,300 -240 Climbing Seattle Center
07:40PM 47.6242 -122.3828 151° Southeast 162 186 2,000 -720 Descending Seattle Center
07:40PM 47.6025 -122.3658 152° Southeast 150 173 1,600 -900 Descending Seattle Center
07:41PM 47.5883 -122.3522 147° Southeast 151 174 1,100 -900 Descending Seattle Center
07:41PM 47.5683 -122.3353 150° Southeast 145 167 700 -840 Descending Seattle Center
07:42PM 47.5528 -122.3217 149° Southeast 148 170 300 -600 Descending Seattle Center
07:42PM 47.5347 -122.3081 153° Southeast 201 231 100 36,660 Descending Seattle Center
07:43PM 47.5203 -122.2942 147° Southeast 146 168 37,000 100,620 Climbing Seattle Center